Time;durP1;ratioP1;P1;durP2;ratioP2;P2;SDS_P1;SDS_P2;PMS_P1;PMS_P2;Temp;Humidity;BMP_temperature;BMP_pressure;BME280_temperature;BME280_humidity;BME280_pressure;Samples;Min_cycle;Max_cycle;Signal;HPM_P1;HPM_P2
2024/02/19 00:00:18;;;;;;;13.50;6.87;;;;;;;7.86;100.00;102586.25;2087792;28;20180;-69
2024/02/19 00:01:18;;;;;;;13.93;7.32;;;;;;;8.22;100.00;102641.78;2087112;28;20661;-69
2024/02/19 00:02:19;;;;;;;11.60;6.43;;;;;;;8.49;100.00;102684.88;2088402;28;20551;-69
2024/02/19 00:03:19;;;;;;;10.53;5.73;;;;;;;8.47;100.00;102687.22;2087755;28;20194;-69
2024/02/19 00:04:20;;;;;;;13.43;6.67;;;;;;;8.49;100.00;102690.41;2087305;28;20208;-69
2024/02/19 00:05:20;;;;;;;10.43;6.17;;;;;;;8.52;100.00;102691.63;2087794;28;20207;-69
2024/02/19 00:06:24;;;;;;;11.53;6.53;;;;;;;8.57;100.00;102688.56;2087319;28;20836;-69
2024/02/19 00:07:24;;;;;;;12.53;6.27;;;;;;;8.54;100.00;102692.88;2086966;28;20281;-69
2024/02/19 00:08:25;;;;;;;11.07;6.87;;;;;;;8.56;100.00;102689.75;2087258;28;20437;-69
2024/02/19 00:09:26;;;;;;;11.63;6.17;;;;;;;8.60;100.00;102690.56;2087699;28;20193;-69
2024/02/19 00:10:26;;;;;;;12.17;6.67;;;;;;;8.55;100.00;102688.94;2087551;28;20181;-69
2024/02/19 00:11:27;;;;;;;10.80;6.67;;;;;;;7.63;100.00;102574.41;2087761;28;20187;-69
2024/02/19 00:12:27;;;;;;;11.60;6.63;;;;;;;8.51;100.00;102679.78;2087600;28;20192;-69
2024/02/19 00:13:28;;;;;;;9.87;5.97;;;;;;;8.56;100.00;102679.47;2087514;28;20190;-69
2024/02/19 00:14:28;;;;;;;11.23;6.40;;;;;;;8.50;100.00;102666.34;2087068;28;20199;-69
2024/02/19 00:15:29;;;;;;;11.60;6.30;;;;;;;7.76;100.00;102542.69;2087674;28;20207;-69
2024/02/19 00:16:29;;;;;;;11.37;6.50;;;;;;;8.57;100.00;102683.03;2087689;28;20570;-69
2024/02/19 00:17:30;;;;;;;11.97;6.07;;;;;;;8.56;100.00;102678.69;2087632;28;20650;-69
2024/02/19 00:18:30;;;;;;;11.80;6.73;;;;;;;8.59;100.00;102678.75;2087059;28;20184;-69
2024/02/19 00:19:31;;;;;;;10.37;6.07;;;;;;;8.46;100.00;102669.03;2088261;28;20180;-69
2024/02/19 00:20:32;;;;;;;11.60;6.30;;;;;;;8.59;100.00;102683.47;2087126;28;20223;-69
2024/02/19 00:21:33;;;;;;;11.47;6.43;;;;;;;8.31;100.00;102622.19;2087908;28;20199;-69
2024/02/19 00:22:33;;;;;;;12.83;6.47;;;;;;;8.71;100.00;102684.06;2087566;28;20188;-69
2024/02/19 00:23:35;;;;;;;12.30;6.30;;;;;;;8.77;100.00;102679.03;2087477;28;20190;-69
2024/02/19 00:24:37;;;;;;;10.52;6.20;;;;;;;8.80;100.00;102684.63;2086981;28;20248;-69
2024/02/19 00:25:37;;;;;;;12.95;6.80;;;;;;;8.83;100.00;102683.88;2087176;28;20182;-69
2024/02/19 00:26:38;;;;;;;9.13;5.63;;;;;;;8.50;100.00;102635.94;2087453;28;20182;-69
2024/02/19 00:27:39;;;;;;;10.63;6.30;;;;;;;8.72;100.00;102671.06;2088278;28;20205;-69
2024/02/19 00:28:39;;;;;;;13.67;7.40;;;;;;;8.60;100.00;102660.97;2086679;28;20186;-69
2024/02/19 00:29:40;;;;;;;11.17;6.83;;;;;;;8.77;100.00;102674.28;2087605;28;20184;-69
2024/02/19 00:30:40;;;;;;;11.83;6.13;;;;;;;8.69;100.00;102678.13;2086842;28;20722;-70
2024/02/19 00:31:41;;;;;;;14.13;7.30;;;;;;;8.67;100.00;102685.19;2087544;28;20276;-69
2024/02/19 00:32:41;;;;;;;10.50;6.37;;;;;;;8.70;100.00;102685.25;2087430;28;20200;-69
2024/02/19 00:33:42;;;;;;;11.40;6.17;;;;;;;8.70;100.00;102684.44;2087532;28;20183;-69
2024/02/19 00:34:43;;;;;;;9.93;6.30;;;;;;;8.04;100.00;102590.16;2087121;28;20187;-69
2024/02/19 00:35:43;;;;;;;10.53;6.07;;;;;;;8.04;100.00;102573.56;2087523;28;20199;-69
2024/02/19 00:36:44;;;;;;;9.90;5.97;;;;;;;8.86;100.00;102685.88;2087820;28;20241;-69
2024/02/19 00:37:44;;;;;;;12.97;6.97;;;;;;;8.91;100.00;102682.81;2087743;28;20201;-69
2024/02/19 00:38:45;;;;;;;12.67;6.60;;;;;;;8.97;100.00;102691.59;2087220;28;20194;-69
2024/02/19 00:39:46;;;;;;;10.23;6.57;;;;;;;8.94;100.00;102689.56;2087458;28;20227;-70
2024/02/19 00:40:46;;;;;;;10.30;5.90;;;;;;;8.94;100.00;102689.56;2086808;28;20204;-69
2024/02/19 00:41:47;;;;;;;11.17;6.80;;;;;;;8.97;100.00;102695.16;2087383;28;20183;-69
2024/02/19 00:42:47;;;;;;;11.23;6.33;;;;;;;9.03;100.00;102693.66;2086681;28;20275;-69
2024/02/19 00:43:48;;;;;;;12.40;6.83;;;;;;;9.01;100.00;102695.19;2087179;28;20636;-69
2024/02/19 00:44:49;;;;;;;9.50;6.03;;;;;;;8.92;100.00;102670.56;2087621;28;20187;-69
2024/02/19 00:45:49;;;;;;;10.73;6.27;;;;;;;9.00;100.00;102677.00;2087493;28;20249;-69
2024/02/19 00:46:50;;;;;;;13.53;6.67;;;;;;;8.42;100.00;102585.31;2087534;28;20195;-69
2024/02/19 00:47:50;;;;;;;11.33;6.13;;;;;;;9.08;100.00;102681.50;2087142;28;20194;-69
2024/02/19 00:48:50;;;;;;;11.03;5.80;;;;;;;9.13;100.00;102683.94;2086618;28;20196;-69
2024/02/19 00:49:51;;;;;;;11.97;6.27;;;;;;;9.12;100.00;102680.38;2087503;28;20345;-69
2024/02/19 00:50:51;;;;;;;10.83;6.30;;;;;;;9.10;100.00;102677.19;2086810;28;20238;-69
2024/02/19 00:51:52;;;;;;;11.13;6.17;;;;;;;8.95;100.00;102655.22;2087318;28;20216;-69
2024/02/19 00:52:52;;;;;;;11.50;6.77;;;;;;;9.02;100.00;102671.94;2087460;28;20204;-69
2024/02/19 00:53:53;;;;;;;10.87;6.53;;;;;;;8.41;100.00;102586.44;2086765;28;20202;-69
2024/02/19 00:54:53;;;;;;;13.07;6.73;;;;;;;8.96;100.00;102676.97;2086897;28;20206;-69
2024/02/19 00:55:54;;;;;;;9.63;5.27;;;;;;;8.96;100.00;102674.19;2087378;28;20269;-69
2024/02/19 00:56:55;;;;;;;12.23;6.87;;;;;;;8.98;100.00;102676.59;2087437;28;20211;-70
2024/02/19 00:57:55;;;;;;;12.40;6.53;;;;;;;8.98;100.00;102674.63;2086916;28;20203;-69
2024/02/19 00:58:56;;;;;;;14.37;7.27;;;;;;;9.00;100.00;102677.00;2087414;28;20652;-69
2024/02/19 00:59:56;;;;;;;11.23;6.27;;;;;;;8.79;100.00;102652.63;2087345;28;20578;-69
2024/02/19 01:00:58;;;;;;;11.47;6.90;;;;;;;9.02;100.00;102675.47;2087434;28;20222;-70
2024/02/19 01:01:58;;;;;;;11.50;6.90;;;;;;;9.04;100.00;102672.34;2087245;28;20191;-69
2024/02/19 01:02:59;;;;;;;14.43;6.47;;;;;;;8.86;100.00;102671.28;2087657;28;20445;-69
2024/02/19 01:03:59;;;;;;;14.17;6.07;;;;;;;9.03;100.00;102677.06;2086895;28;20656;-69
2024/02/19 01:05:00;;;;;;;10.77;6.23;;;;;;;8.98;100.00;102674.63;2087447;28;20203;-69
2024/02/19 01:06:00;;;;;;;11.53;6.07;;;;;;;9.03;100.00;102679.03;2087296;28;20198;-69
2024/02/19 01:07:01;;;;;;;12.13;6.50;;;;;;;9.10;100.00;102681.91;2087321;28;20640;-69
2024/02/19 01:08:01;;;;;;;13.23;5.60;;;;;;;8.47;100.00;102582.22;2086836;28;20268;-69
2024/02/19 01:09:02;;;;;;;13.13;5.87;;;;;;;9.12;100.00;102680.38;2087064;28;20190;-69
2024/02/19 01:10:03;;;;;;;15.87;6.57;;;;;;;9.16;100.00;102669.34;2087858;28;20683;-69
2024/02/19 01:11:04;;;;;;;13.87;7.13;;;;;;;9.20;100.00;102672.97;2086848;28;20457;-70
2024/02/19 01:12:05;;;;;;;11.30;6.67;;;;;;;9.22;100.00;102671.41;2087638;28;20200;-69
2024/02/19 01:13:05;;;;;;;14.63;6.90;;;;;;;9.07;100.00;102639.19;2087307;28;20238;-69
2024/02/19 01:14:06;;;;;;;16.23;6.57;;;;;;;9.30;100.00;102672.31;2086689;28;20676;-69
2024/02/19 01:15:07;;;;;;;14.57;6.97;;;;;;;9.34;100.00;102667.63;2086795;28;20835;-69
2024/02/19 01:16:08;;;;;;;11.90;6.50;;;;;;;9.34;100.00;102673.97;2087198;28;20270;-69
2024/02/19 01:17:09;;;;;;;11.00;5.97;;;;;;;9.36;100.00;102676.34;2087237;28;20432;-69
2024/02/19 01:18:09;;;;;;;11.33;5.90;;;;;;;9.35;100.00;102670.03;2087630;28;20447;-69
2024/02/19 01:19:10;;;;;;;9.57;6.43;;;;;;;9.32;100.00;102653.38;2087570;28;20217;-69
2024/02/19 01:20:11;;;;;;;12.13;6.40;;;;;;;8.60;100.00;102550.44;2087388;28;20217;-69
2024/02/19 01:21:12;;;;;;;16.70;7.00;;;;;;;9.35;100.00;102666.47;2094343;28;20373;-70
2024/02/19 01:22:12;;;;;;;13.37;7.47;;;;;;;9.27;100.00;102648.19;2094931;28;20443;-69
2024/02/19 01:23:13;;;;;;;12.27;7.10;;;;;;;9.31;100.00;102658.13;2087463;28;20199;-69
2024/02/19 01:24:13;;;;;;;11.40;6.67;;;;;;;8.94;100.00;102584.50;2086742;28;20273;-69
2024/02/19 01:25:14;;;;;;;13.30;6.67;;;;;;;9.28;100.00;102653.31;2086687;28;20193;-69
2024/02/19 01:26:20;;;;;;;11.40;6.70;;;;;;;9.33;100.00;102657.75;2087715;28;20191;-69
2024/02/19 01:27:22;;;;;;;12.03;7.03;;;;;;;9.29;100.00;102657.69;2087787;28;20306;-69
2024/02/19 01:28:22;;;;;;;10.43;7.00;;;;;;;9.21;100.00;102657.97;2086831;28;20455;-69
2024/02/19 01:29:24;;;;;;;14.40;6.77;;;;;;;9.19;100.00;102654.78;2087153;28;20540;-69
2024/02/19 01:30:24;;;;;;;13.02;7.28;;;;;;;9.16;100.00;102652.75;2086677;28;20227;-69
2024/02/19 01:31:25;;;;;;;11.77;7.40;;;;;;;9.02;100.00;102631.22;2086814;28;20198;-69
2024/02/19 01:32:26;;;;;;;10.37;6.73;;;;;;;9.17;100.00;102652.38;2087156;28;20199;-69
2024/02/19 01:33:27;;;;;;;13.23;7.10;;;;;;;9.17;100.00;102648.84;2087509;28;20243;-69
2024/02/19 01:34:29;;;;;;;15.20;7.70;;;;;;;8.22;100.00;102498.16;2086679;28;20527;-70
2024/02/19 01:35:30;;;;;;;10.67;6.43;;;;;;;9.18;100.00;102650.41;2087377;28;20743;-69
2024/02/19 01:36:30;;;;;;;12.40;7.60;;;;;;;9.16;100.00;102641.69;2087778;28;20828;-69
2024/02/19 01:37:31;;;;;;;12.93;6.80;;;;;;;9.16;100.00;102644.44;2087186;28;20242;-69
2024/02/19 01:38:32;;;;;;;11.47;6.63;;;;;;;8.69;100.00;102562.03;2094265;28;20230;-70
2024/02/19 01:39:35;;;;;;;11.30;6.60;;;;;;;9.19;100.00;102643.72;2095046;28;20201;-69
2024/02/19 01:40:35;;;;;;;11.80;7.10;;;;;;;9.16;100.00;102636.97;2086183;28;20198;-69
2024/02/19 01:41:36;;;;;;;12.80;7.17;;;;;;;9.18;100.00;102636.59;2087115;28;20449;-69
2024/02/19 01:42:37;;;;;;;11.67;6.27;;;;;;;9.19;100.00;102638.19;2087282;28;20194;-70
2024/02/19 01:43:37;;;;;;;13.23;6.37;;;;;;;9.19;100.00;102641.75;2086805;28;20181;-69
2024/02/19 01:44:38;;;;;;;14.07;7.50;;;;;;;8.76;100.00;102564.88;2087286;28;20179;-69
2024/02/19 01:45:38;;;;;;;11.87;6.80;;;;;;;9.24;100.00;102644.19;2087833;28;20359;-70
2024/02/19 01:46:41;;;;;;;11.33;6.33;;;;;;;9.21;100.00;102650.47;2087399;28;20188;-69
2024/02/19 01:47:41;;;;;;;10.43;6.30;;;;;;;9.15;100.00;102653.91;2087129;28;20190;-69
2024/02/19 01:48:42;;;;;;;13.40;6.83;;;;;;;8.60;100.00;102578.06;2086808;28;20914;-68
2024/02/19 01:49:44;;;;;;;12.30;6.70;;;;;;;8.70;100.00;102596.78;2087139;28;20600;-69
2024/02/19 01:50:46;;;;;;;12.73;6.83;;;;;;;8.73;100.00;102598.81;2086629;28;20200;-69
2024/02/19 01:51:48;;;;;;;10.50;5.77;;;;;;;9.09;100.00;102647.13;2087002;28;20425;-69
2024/02/19 01:52:51;;;;;;;10.97;6.23;;;;;;;9.04;100.00;102648.25;2087289;28;20440;-69
2024/02/19 01:53:54;;;;;;;10.47;6.53;;;;;;;9.09;100.00;102647.94;2086884;28;20760;-69
2024/02/19 01:54:54;;;;;;;12.67;6.53;;;;;;;9.12;100.00;102654.69;2087309;28;20800;-69
2024/02/19 01:55:55;;;;;;;11.57;6.77;;;;;;;9.08;100.00;102643.56;2086967;28;20498;-69
2024/02/19 01:56:56;;;;;;;10.60;5.40;;;;;;;9.11;100.00;102647.53;2087190;28;20190;-70
2024/02/19 01:57:57;;;;;;;14.03;6.73;;;;;;;9.10;100.00;102648.72;2086657;28;20877;-69
2024/02/19 01:58:59;;;;;;;11.20;5.80;;;;;;;8.72;100.00;102591.66;2094289;28;20317;-69
2024/02/19 02:00:10;;;;;;;9.73;5.77;;;;;;;9.15;100.00;102645.63;2094923;28;20965;-69
2024/02/19 02:01:13;;;;;;;11.80;5.70;;;;;;;9.17;100.00;102644.09;2088287;28;20464;-69
2024/02/19 02:02:16;;;;;;;10.75;5.80;;;;;;;8.38;100.00;102528.38;2088826;28;20458;-70
2024/02/19 02:03:21;;;;;;;13.03;6.53;;;;;;;8.58;100.00;102551.97;2088792;28;20268;-69
2024/02/19 02:04:21;;;;;;;10.03;6.20;;;;;;;9.15;100.00;102643.66;2088025;28;20436;-69
2024/02/19 02:05:23;;;;;;;11.87;6.50;;;;;;;9.09;100.00;102633.28;2088649;28;20445;-69
2024/02/19 02:06:24;;;;;;;11.50;6.67;;;;;;;9.14;100.00;102649.56;2089000;28;20347;-69
2024/02/19 02:07:25;;;;;;;9.23;5.97;;;;;;;9.14;100.00;102638.50;2088636;28;20453;-69
2024/02/19 02:08:26;;;;;;;12.70;7.13;;;;;;;9.18;100.00;102642.91;2088370;28;20220;-69
2024/02/19 02:09:27;;;;;;;9.93;5.43;;;;;;;9.19;100.00;102640.94;2088723;28;20187;-69
2024/02/19 02:10:27;;;;;;;10.93;6.13;;;;;;;9.19;100.00;102635.41;2087999;28;20232;-69
2024/02/19 02:11:28;;;;;;;10.17;5.50;;;;;;;9.02;100.00;102605.56;2088621;28;20283;-69
2024/02/19 02:12:28;;;;;;;12.97;6.70;;;;;;;9.20;100.00;102635.03;2088690;28;20204;-69
2024/02/19 02:13:29;;;;;;;10.93;6.67;;;;;;;8.83;100.00;102567.75;2087594;28;20285;-70
2024/02/19 02:14:29;;;;;;;14.10;7.20;;;;;;;9.22;100.00;102631.91;2088839;28;20193;-69
2024/02/19 02:15:30;;;;;;;11.23;6.07;;;;;;;9.22;100.00;102629.94;2088765;28;20214;-69
2024/02/19 02:16:30;;;;;;;12.87;6.97;;;;;;;9.21;100.00;102627.53;2088505;28;20229;-69
2024/02/19 02:17:31;;;;;;;13.07;6.33;;;;;;;9.20;100.00;102626.75;2088555;28;20221;-69
2024/02/19 02:18:31;;;;;;;12.73;6.30;;;;;;;9.22;100.00;102641.00;2088238;28;20203;-69
2024/02/19 02:19:32;;;;;;;12.23;6.40;;;;;;;8.58;100.00;102527.09;2088736;28;20224;-69
2024/02/19 02:20:33;;;;;;;11.00;5.67;;;;;;;9.26;100.00;102663.97;2087785;28;20678;-69
2024/02/19 02:21:36;;;;;;;14.07;6.67;;;;;;;9.27;100.00;102635.13;2087549;28;20244;-69
2024/02/19 02:22:36;;;;;;;11.35;6.05;;;;;;;9.32;100.00;102639.56;2088692;28;20182;-69
2024/02/19 02:23:37;;;;;;;11.13;6.43;;;;;;;9.32;100.00;102639.56;2089138;28;20221;-69
2024/02/19 02:24:38;;;;;;;10.43;6.50;;;;;;;8.97;100.00;102573.47;2088171;28;20678;-69
2024/02/19 02:25:38;;;;;;;9.80;5.73;;;;;;;9.34;100.00;102629.72;2088350;28;20296;-69
2024/02/19 02:26:40;;;;;;;13.57;6.57;;;;;;;9.37;100.00;102630.94;2088447;28;20286;-69
2024/02/19 02:27:40;;;;;;;11.07;6.03;;;;;;;9.36;100.00;102632.88;2088422;28;20197;-69
2024/02/19 02:28:42;;;;;;;10.40;5.77;;;;;;;8.54;100.00;102498.59;2087964;28;20492;-69
2024/02/19 02:29:42;;;;;;;10.80;5.77;;;;;;;9.31;100.00;102624.09;2095843;28;20244;-69
2024/02/19 02:30:43;;;;;;;15.23;5.53;;;;;;;9.40;100.00;102632.91;2095453;28;20979;-69
2024/02/19 02:31:43;;;;;;;10.60;6.00;;;;;;;9.44;100.00;102631.00;2089080;28;20273;-69
2024/02/19 02:32:44;;;;;;;9.30;5.13;;;;;;;9.46;100.00;102634.19;2088489;28;20201;-69
2024/02/19 02:33:44;;;;;;;10.20;5.43;;;;;;;9.46;100.00;102631.41;2088642;28;20269;-69
2024/02/19 02:34:45;;;;;;;9.63;6.20;;;;;;;9.48;100.00;102635.41;2094558;28;20195;-70
2024/02/19 02:35:45;;;;;;;11.20;5.83;;;;;;;9.44;100.00;102623.47;2095674;28;20211;-69
2024/02/19 02:36:46;;;;;;;8.77;5.33;;;;;;;9.48;100.00;102632.63;2088216;28;20230;-69
2024/02/19 02:37:47;;;;;;;13.17;6.40;;;;;;;9.49;100.00;102633.44;2088185;28;20179;-69
2024/02/19 02:38:47;;;;;;;10.27;6.10;;;;;;;9.21;100.00;102586.03;2088267;28;20192;-69
2024/02/19 02:39:48;;;;;;;8.77;5.73;;;;;;;9.52;100.00;102632.66;2088500;28;20182;-69
2024/02/19 02:40:48;;;;;;;12.80;6.50;;;;;;;9.49;100.00;102656.38;2088457;28;20639;-69
2024/02/19 02:41:49;;;;;;;12.40;5.90;;;;;;;9.53;100.00;102634.28;2088220;28;20662;-69
2024/02/19 02:42:49;;;;;;;11.17;6.53;;;;;;;9.51;100.00;102634.66;2088577;28;20251;-69
2024/02/19 02:43:50;;;;;;;12.97;6.60;;;;;;;9.55;100.00;102632.75;2088335;28;20226;-69
2024/02/19 02:44:51;;;;;;;12.23;6.63;;;;;;;9.57;100.00;102637.88;2087929;28;20195;-69
2024/02/19 02:45:51;;;;;;;10.77;6.00;;;;;;;9.52;100.00;102622.41;2087969;28;20483;-69
2024/02/19 02:46:52;;;;;;;12.83;5.63;;;;;;;9.59;100.00;102630.00;2088285;28;20184;-69
2024/02/19 02:47:52;;;;;;;10.43;5.90;;;;;;;9.18;100.00;102565.44;2087724;28;20263;-70
2024/02/19 02:48:53;;;;;;;10.70;6.60;;;;;;;8.52;100.00;102467.81;2088935;28;20271;-69
2024/02/19 02:49:53;;;;;;;12.60;6.90;;;;;;;9.63;100.00;102628.88;2087725;28;20193;-69
2024/02/19 02:50:54;;;;;;;11.40;5.93;;;;;;;9.64;100.00;102638.75;2087604;28;20253;-69
2024/02/19 02:51:54;;;;;;;9.97;5.07;;;;;;;9.49;100.00;102614.84;2088422;28;20192;-69
2024/02/19 02:52:55;;;;;;;9.90;6.00;;;;;;;9.69;100.00;102634.88;2088137;28;20192;-69
2024/02/19 02:53:55;;;;;;;10.23;5.73;;;;;;;9.33;100.00;102594.88;2087643;28;20204;-69
2024/02/19 02:54:56;;;;;;;10.13;5.37;;;;;;;9.69;100.00;102638.41;2088022;28;20176;-69
2024/02/19 02:55:56;;;;;;;13.17;5.87;;;;;;;9.70;100.00;102637.28;2088151;28;20208;-69
2024/02/19 02:56:57;;;;;;;11.47;6.40;;;;;;;9.62;100.00;102618.16;2088999;28;20187;-70
2024/02/19 02:57:57;;;;;;;11.23;6.20;;;;;;;9.63;100.00;102636.38;2087786;28;20250;-69
2024/02/19 02:58:58;;;;;;;11.50;5.53;;;;;;;9.62;100.00;102637.53;2088390;28;20188;-69
2024/02/19 02:59:58;;;;;;;10.93;5.80;;;;;;;9.31;100.00;102588.94;2088348;28;20189;-69
2024/02/19 03:01:00;;;;;;;14.13;7.00;;;;;;;9.13;100.00;102571.31;2087653;28;20195;-69
2024/02/19 03:02:01;;;;;;;10.90;6.40;;;;;;;9.60;100.00;102639.91;2088433;28;20208;-69
2024/02/19 03:03:01;;;;;;;10.67;5.73;;;;;;;9.61;100.00;102647.84;2088136;28;20431;-69
2024/02/19 03:04:02;;;;;;;11.63;6.10;;;;;;;9.28;100.00;102584.16;2087636;28;20245;-69
2024/02/19 03:05:03;;;;;;;11.27;6.60;;;;;;;9.51;100.00;102626.34;2088887;28;20180;-69
2024/02/19 03:06:04;;;;;;;11.60;6.17;;;;;;;9.59;100.00;102641.84;2088841;28;20294;-69
2024/02/19 03:07:04;;;;;;;9.63;5.87;;;;;;;9.48;100.00;102631.84;2088211;28;20446;-69
2024/02/19 03:08:06;;;;;;;11.10;6.30;;;;;;;9.42;100.00;102636.09;2088095;28;20196;-69
2024/02/19 03:09:06;;;;;;;11.87;5.80;;;;;;;9.37;100.00;102640.00;2088126;28;20187;-70
2024/02/19 03:10:07;;;;;;;10.60;6.47;;;;;;;9.32;100.00;102640.34;2088442;28;20447;-69
2024/02/19 03:11:08;;;;;;;15.20;6.80;;;;;;;9.20;100.00;102610.16;2087657;28;20212;-69
2024/02/19 03:12:09;;;;;;;13.43;6.43;;;;;;;9.34;100.00;102638.00;2087330;28;20488;-69
2024/02/19 03:13:09;;;;;;;11.57;6.30;;;;;;;9.38;100.00;102635.28;2088110;28;20192;-69
2024/02/19 03:14:13;;;;;;;11.47;6.20;;;;;;;9.31;100.00;102629.63;2088336;28;20192;-70
2024/02/19 03:15:14;;;;;;;11.47;6.53;;;;;;;9.44;100.00;102634.56;2088056;28;20207;-69
2024/02/19 03:16:17;;;;;;;13.33;7.33;;;;;;;9.46;100.00;102640.53;2087712;28;20465;-69
2024/02/19 03:17:19;;;;;;;11.20;6.37;;;;;;;9.25;100.00;102622.84;2087446;28;20615;-69
2024/02/19 03:18:19;;;;;;;11.30;6.67;;;;;;;8.90;100.00;102570.63;2087043;28;20462;-69
2024/02/19 03:19:20;;;;;;;12.03;6.63;;;;;;;9.23;100.00;102639.03;2088149;28;20946;-69
2024/02/19 03:20:23;;;;;;;14.47;6.70;;;;;;;9.31;100.00;102637.94;2087727;28;20200;-69
2024/02/19 03:21:23;;;;;;;9.90;6.47;;;;;;;9.25;100.00;102623.66;2087356;28;20191;-69
2024/02/19 03:22:25;;;;;;;10.63;6.17;;;;;;;9.40;100.00;102644.00;2088107;28;20466;-69
2024/02/19 03:23:26;;;;;;;10.43;5.57;;;;;;;9.32;100.00;102632.03;2088347;28;20649;-69
2024/02/19 03:24:27;;;;;;;13.53;5.57;;;;;;;9.47;100.00;102642.13;2087093;28;20806;-69
2024/02/19 03:25:27;;;;;;;9.63;5.90;;;;;;;9.52;100.00;102640.97;2088216;28;20246;-69
2024/02/19 03:26:28;;;;;;;10.60;6.27;;;;;;;9.53;100.00;102640.59;2088243;28;20198;-69
2024/02/19 03:27:28;;;;;;;13.07;6.93;;;;;;;9.49;100.00;102633.44;2095225;28;20241;-69
2024/02/19 03:28:29;;;;;;;11.00;5.83;;;;;;;9.52;100.00;102638.19;2094555;28;20195;-69
2024/02/19 03:29:30;;;;;;;12.60;6.90;;;;;;;8.92;100.00;102548.13;2087833;28;20548;-69
2024/02/19 03:30:31;;;;;;;10.23;6.47;;;;;;;9.39;100.00;102642.41;2087329;28;20797;-70
2024/02/19 03:31:31;;;;;;;9.50;5.80;;;;;;;9.36;100.00;102640.38;2087913;28;20633;-69
2024/02/19 03:32:32;;;;;;;14.20;6.37;;;;;;;9.20;100.00;102612.09;2096404;28;20829;-69
2024/02/19 03:33:32;;;;;;;9.30;6.03;;;;;;;9.41;100.00;102640.03;2095653;28;20652;-69
2024/02/19 03:34:33;;;;;;;9.97;6.40;;;;;;;9.35;100.00;102620.22;2087611;28;20197;-69
2024/02/19 03:35:33;;;;;;;12.03;6.73;;;;;;;9.44;100.00;102637.31;2087820;28;20212;-69
2024/02/19 03:36:34;;;;;;;11.67;6.43;;;;;;;9.44;100.00;102633.78;2087676;28;20196;-70
2024/02/19 03:37:35;;;;;;;13.47;6.50;;;;;;;9.33;100.00;102617.03;2087691;28;20237;-69
2024/02/19 03:38:36;;;;;;;11.23;6.37;;;;;;;8.38;100.00;102471.16;2087529;28;20718;-69
2024/02/19 03:39:37;;;;;;;14.60;6.80;;;;;;;9.37;100.00;102634.47;2087677;28;20187;-69
2024/02/19 03:40:37;;;;;;;10.77;6.07;;;;;;;9.37;100.00;102636.47;2087928;28;20462;-69
2024/02/19 03:41:38;;;;;;;9.07;6.03;;;;;;;8.98;100.00;102577.03;2087523;28;20200;-69
2024/02/19 03:42:38;;;;;;;10.63;7.40;;;;;;;9.35;100.00;102630.50;2088065;28;20263;-69
2024/02/19 03:43:39;;;;;;;11.07;6.40;;;;;;;9.29;100.00;102632.00;2087776;28;20188;-69
2024/02/19 03:44:39;;;;;;;10.47;6.40;;;;;;;9.20;100.00;102625.94;2087623;28;20192;-69
2024/02/19 03:45:40;;;;;;;11.70;6.20;;;;;;;8.38;100.00;102473.94;2087998;28;20274;-69
2024/02/19 03:46:40;;;;;;;10.60;6.20;;;;;;;9.40;100.00;102630.16;2087826;28;20213;-69
2024/02/19 03:47:41;;;;;;;11.97;6.50;;;;;;;9.44;100.00;102633.78;2087913;28;20238;-69
2024/02/19 03:48:42;;;;;;;11.00;6.27;;;;;;;8.31;100.00;102465.53;2087540;28;20681;-69
2024/02/19 03:49:43;;;;;;;13.23;6.93;;;;;;;9.38;100.00;102633.28;2095157;28;20999;-69
2024/02/19 03:50:43;;;;;;;12.47;6.80;;;;;;;9.45;100.00;102635.38;2094269;28;20898;-69
2024/02/19 03:51:44;;;;;;;14.37;6.93;;;;;;;9.40;100.00;102619.91;2087767;28;20545;-69
2024/02/19 03:52:44;;;;;;;13.53;6.87;;;;;;;9.55;100.00;102634.69;2087891;28;20189;-69
2024/02/19 03:53:45;;;;;;;11.33;6.53;;;;;;;9.57;100.00;102629.56;2087493;28;20219;-69
2024/02/19 03:56:04;;;;;;;10.83;5.60;;;;;;;9.38;100.00;102607.59;2087933;28;20224;-69
2024/02/19 03:57:05;;;;;;;10.97;6.77;;;;;;;9.55;100.00;102635.50;2087659;28;20967;-69
2024/02/19 03:58:06;;;;;;;15.90;7.60;;;;;;;9.54;100.00;102641.41;2094967;28;20688;-69
2024/02/19 03:59:06;;;;;;;10.20;6.10;;;;;;;9.52;100.00;102633.47;2095228;28;20184;-69
2024/02/19 04:00:09;;;;;;;13.33;6.60;;;;;;;9.12;100.00;102566.94;2088384;28;20188;-69
2024/02/19 04:01:10;;;;;;;11.27;6.23;;;;;;;9.57;100.00;102635.91;2087023;28;20195;-69
2024/02/19 04:02:10;;;;;;;9.93;6.37;;;;;;;9.60;100.00;102624.09;2088040;28;20456;-69
2024/02/19 04:03:11;;;;;;;12.47;7.60;;;;;;;8.98;100.00;102557.69;2095593;28;20245;-69
2024/02/19 04:04:11;;;;;;;10.73;6.40;;;;;;;9.50;100.00;102630.31;2094836;28;20195;-69
2024/02/19 04:05:12;;;;;;;10.47;6.33;;;;;;;9.54;100.00;102630.34;2087622;28;20636;-69
2024/02/19 04:06:13;;;;;;;12.57;6.77;;;;;;;9.58;100.00;102628.41;2087814;28;20192;-69
2024/02/19 04:07:13;;;;;;;16.37;7.20;;;;;;;9.50;100.00;102630.31;2087526;28;20192;-69
2024/02/19 04:08:14;;;;;;;12.00;6.80;;;;;;;9.44;100.00;102620.72;2088125;28;20191;-69
2024/02/19 04:09:14;;;;;;;13.43;6.80;;;;;;;8.99;100.00;102568.38;2088069;28;20237;-69
2024/02/19 04:10:15;;;;;;;10.33;6.73;;;;;;;9.42;100.00;102616.72;2087880;28;20194;-69
2024/02/19 04:11:16;;;;;;;10.43;6.23;;;;;;;9.46;100.00;102617.56;2087503;28;20192;-69
2024/02/19 04:12:16;;;;;;;12.03;6.90;;;;;;;9.51;100.00;102612.50;2087891;28;20203;-69
2024/02/19 04:13:17;;;;;;;12.97;6.90;;;;;;;9.46;100.00;102604.53;2095099;28;20959;-69
2024/02/19 04:14:17;;;;;;;13.53;6.53;;;;;;;9.41;100.00;102615.13;2094741;28;20188;-69
2024/02/19 04:15:18;;;;;;;12.03;6.90;;;;;;;8.93;100.00;102538.66;2087488;28;20189;-70
2024/02/19 04:16:18;;;;;;;11.57;6.63;;;;;;;8.52;100.00;102470.56;2087756;28;20722;-69
2024/02/19 04:17:19;;;;;;;13.43;7.60;;;;;;;9.35;100.00;102611.94;2088417;28;20657;-69
2024/02/19 04:18:19;;;;;;;17.30;7.93;;;;;;;9.39;100.00;102606.44;2087302;28;20660;-69
2024/02/19 04:19:20;;;;;;;15.40;6.90;;;;;;;9.40;100.00;102611.59;2087641;28;20199;-69
2024/02/19 04:20:20;;;;;;;12.47;6.67;;;;;;;9.13;100.00;102565.00;2087608;28;20219;-69
2024/02/19 04:21:21;;;;;;;14.07;6.83;;;;;;;8.98;100.00;102541.88;2087252;28;20196;-69
2024/02/19 04:22:21;;;;;;;12.87;7.10;;;;;;;9.41;100.00;102610.41;2087044;28;20279;-69
2024/02/19 04:23:22;;;;;;;12.10;6.93;;;;;;;9.41;100.00;102606.84;2087462;28;20673;-69
2024/02/19 04:24:22;;;;;;;12.47;6.63;;;;;;;9.47;100.00;102599.78;2087202;28;20192;-69
2024/02/19 04:25:25;;;;;;;11.30;7.27;;;;;;;9.39;100.00;102596.13;2088239;28;20271;-69
2024/02/19 04:26:26;;;;;;;13.57;6.60;;;;;;;9.36;100.00;102591.38;2087231;28;20294;-69
2024/02/19 04:27:26;;;;;;;16.43;7.23;;;;;;;9.38;100.00;102608.38;2087568;28;20530;-69
2024/02/19 04:28:27;;;;;;;12.20;6.57;;;;;;;9.44;100.00;102609.63;2087102;28;20572;-69
2024/02/19 04:29:27;;;;;;;10.67;6.67;;;;;;;9.50;100.00;102612.88;2087645;28;20191;-69
2024/02/19 04:30:28;;;;;;;12.17;6.63;;;;;;;9.32;100.00;102584.22;2094344;28;20219;-69
2024/02/19 04:31:28;;;;;;;14.00;7.10;;;;;;;9.36;100.00;102599.69;2095309;28;20180;-70
2024/02/19 04:32:29;;;;;;;12.27;6.70;;;;;;;9.10;100.00;102568.50;2087550;28;20598;-69
2024/02/19 04:33:30;;;;;;;12.77;6.40;;;;;;;9.24;100.00;102608.22;2088352;28;20180;-69
2024/02/19 04:34:31;;;;;;;13.17;6.87;;;;;;;9.07;100.00;102589.41;2087535;28;20176;-69
2024/02/19 04:35:31;;;;;;;13.57;6.40;;;;;;;9.28;100.00;102616.56;2087620;28;21006;-69
2024/02/19 04:36:32;;;;;;;14.87;7.27;;;;;;;9.27;100.00;102607.47;2086872;28;20195;-69
2024/02/19 04:37:32;;;;;;;14.13;7.13;;;;;;;9.10;100.00;102590.63;2085717;28;20270;-69
2024/02/19 04:38:33;;;;;;;12.30;6.67;;;;;;;8.56;100.00;102502.59;2087226;28;20188;-69
2024/02/19 04:39:34;;;;;;;10.93;6.63;;;;;;;9.32;100.00;102618.19;2086766;28;20198;-69
2024/02/19 04:40:35;;;;;;;13.57;6.67;;;;;;;9.37;100.00;102622.63;2086276;28;20884;-69